sensor_id;sensor_type;location;lat;lon;timestamp;P1;durP1;ratioP1;P2;durP2;ratioP2
10313;SDS011;5202;49.138;10.090;2023-02-26T00:01:43;2.67;;;1.50;;
10313;SDS011;5202;49.138;10.090;2023-02-26T00:04:14;4.70;;;1.60;;
10313;SDS011;5202;49.138;10.090;2023-02-26T00:06:42;2.33;;;1.70;;
10313;SDS011;5202;49.138;10.090;2023-02-26T00:09:22;5.93;;;2.53;;
10313;SDS011;5202;49.138;10.090;2023-02-26T00:11:50;3.57;;;1.60;;
10313;SDS011;5202;49.138;10.090;2023-02-26T00:14:19;4.97;;;1.80;;
10313;SDS011;5202;49.138;10.090;2023-02-26T00:16:49;1.77;;;1.53;;
10313;SDS011;5202;49.138;10.090;2023-02-26T00:19:44;5.20;;;2.20;;
10313;SDS011;5202;49.138;10.090;2023-02-26T00:22:13;2.67;;;1.70;;
10313;SDS011;5202;49.138;10.090;2023-02-26T00:24:42;4.63;;;1.93;;
10313;SDS011;5202;49.138;10.090;2023-02-26T00:27:10;5.10;;;1.50;;
10313;SDS011;5202;49.138;10.090;2023-02-26T00:29:39;1.90;;;1.40;;
10313;SDS011;5202;49.138;10.090;2023-02-26T00:32:08;1.87;;;1.50;;
10313;SDS011;5202;49.138;10.090;2023-02-26T00:34:38;3.60;;;1.83;;
10313;SDS011;5202;49.138;10.090;2023-02-26T00:37:12;2.10;;;1.53;;
10313;SDS011;5202;49.138;10.090;2023-02-26T00:39:54;4.27;;;1.40;;
10313;SDS011;5202;49.138;10.090;2023-02-26T00:42:34;1.80;;;1.60;;
10313;SDS011;5202;49.138;10.090;2023-02-26T00:45:03;4.10;;;1.93;;
10313;SDS011;5202;49.138;10.090;2023-02-26T00:47:36;3.47;;;1.77;;
10313;SDS011;5202;49.138;10.090;2023-02-26T00:50:13;2.17;;;1.67;;
10313;SDS011;5202;49.138;10.090;2023-02-26T00:52:49;4.63;;;1.80;;
10313;SDS011;5202;49.138;10.090;2023-02-26T00:55:28;3.23;;;1.60;;
10313;SDS011;5202;49.138;10.090;2023-02-26T00:57:58;1.57;;;1.43;;
10313;SDS011;5202;49.138;10.090;2023-02-26T01:00:26;4.77;;;1.50;;
10313;SDS011;5202;49.138;10.090;2023-02-26T01:02:55;4.20;;;1.77;;
10313;SDS011;5202;49.138;10.090;2023-02-26T01:05:25;2.13;;;1.60;;
10313;SDS011;5202;49.138;10.090;2023-02-26T01:07:57;4.43;;;1.80;;
10313;SDS011;5202;49.138;10.090;2023-02-26T01:10:33;2.57;;;1.60;;
10313;SDS011;5202;49.138;10.090;2023-02-26T01:13:02;2.20;;;1.70;;
10313;SDS011;5202;49.138;10.090;2023-02-26T01:15:31;2.40;;;1.77;;
10313;SDS011;5202;49.138;10.090;2023-02-26T01:18:02;4.57;;;1.40;;
10313;SDS011;5202;49.138;10.090;2023-02-26T01:20:37;3.47;;;1.70;;
10313;SDS011;5202;49.138;10.090;2023-02-26T01:23:13;6.47;;;1.70;;
10313;SDS011;5202;49.138;10.090;2023-02-26T01:25:46;5.17;;;1.70;;
10313;SDS011;5202;49.138;10.090;2023-02-26T01:28:17;3.07;;;1.80;;
10313;SDS011;5202;49.138;10.090;2023-02-26T01:30:46;2.60;;;1.80;;
10313;SDS011;5202;49.138;10.090;2023-02-26T01:33:16;2.50;;;1.50;;
10313;SDS011;5202;49.138;10.090;2023-02-26T01:35:53;2.70;;;1.40;;
10313;SDS011;5202;49.138;10.090;2023-02-26T01:38:28;2.93;;;1.33;;
10313;SDS011;5202;49.138;10.090;2023-02-26T01:41:12;2.73;;;1.50;;
10313;SDS011;5202;49.138;10.090;2023-02-26T01:43:52;2.70;;;1.47;;
10313;SDS011;5202;49.138;10.090;2023-02-26T01:46:53;2.33;;;1.40;;
10313;SDS011;5202;49.138;10.090;2023-02-26T01:49:32;1.97;;;1.40;;
10313;SDS011;5202;49.138;10.090;2023-02-26T01:52:03;6.17;;;1.50;;
10313;SDS011;5202;49.138;10.090;2023-02-26T01:54:35;3.73;;;1.40;;
10313;SDS011;5202;49.138;10.090;2023-02-26T01:57:06;3.90;;;1.50;;
10313;SDS011;5202;49.138;10.090;2023-02-26T01:59:39;4.40;;;1.77;;
10313;SDS011;5202;49.138;10.090;2023-02-26T02:02:12;3.50;;;1.33;;
10313;SDS011;5202;49.138;10.090;2023-02-26T02:04:45;3.33;;;1.47;;
10313;SDS011;5202;49.138;10.090;2023-02-26T02:07:15;4.67;;;1.60;;
10313;SDS011;5202;49.138;10.090;2023-02-26T02:09:52;3.87;;;1.30;;
10313;SDS011;5202;49.138;10.090;2023-02-26T02:12:23;2.27;;;1.40;;
10313;SDS011;5202;49.138;10.090;2023-02-26T02:15:07;4.33;;;1.47;;
10313;SDS011;5202;49.138;10.090;2023-02-26T02:17:44;2.93;;;1.53;;
10313;SDS011;5202;49.138;10.090;2023-02-26T02:20:36;2.33;;;1.50;;
10313;SDS011;5202;49.138;10.090;2023-02-26T02:24:03;3.90;;;1.30;;
10313;SDS011;5202;49.138;10.090;2023-02-26T02:26:46;5.07;;;1.30;;
10313;SDS011;5202;49.138;10.090;2023-02-26T02:32:23;3.03;;;1.33;;
10313;SDS011;5202;49.138;10.090;2023-02-26T02:34:57;2.53;;;1.27;;
10313;SDS011;5202;49.138;10.090;2023-02-26T02:37:35;3.43;;;1.40;;
10313;SDS011;5202;49.138;10.090;2023-02-26T02:40:10;2.17;;;1.20;;
10313;SDS011;5202;49.138;10.090;2023-02-26T02:42:42;4.63;;;1.40;;
10313;SDS011;5202;49.138;10.090;2023-02-26T02:45:16;1.97;;;1.13;;
10313;SDS011;5202;49.138;10.090;2023-02-26T02:47:53;6.00;;;1.53;;
10313;SDS011;5202;49.138;10.090;2023-02-26T02:50:26;3.63;;;1.40;;
10313;SDS011;5202;49.138;10.090;2023-02-26T02:53:01;3.43;;;1.20;;
10313;SDS011;5202;49.138;10.090;2023-02-26T02:55:35;1.50;;;1.30;;
10313;SDS011;5202;49.138;10.090;2023-02-26T02:58:10;3.93;;;1.37;;
10313;SDS011;5202;49.138;10.090;2023-02-26T03:00:46;4.23;;;1.60;;
10313;SDS011;5202;49.138;10.090;2023-02-26T03:03:20;2.83;;;1.50;;
10313;SDS011;5202;49.138;10.090;2023-02-26T03:05:58;4.33;;;1.60;;
10313;SDS011;5202;49.138;10.090;2023-02-26T03:08:27;4.00;;;1.50;;
10313;SDS011;5202;49.138;10.090;2023-02-26T03:11:01;2.50;;;1.33;;
10313;SDS011;5202;49.138;10.090;2023-02-26T03:13:30;2.60;;;1.33;;
10313;SDS011;5202;49.138;10.090;2023-02-26T03:16:11;2.27;;;1.40;;
10313;SDS011;5202;49.138;10.090;2023-02-26T03:18:56;4.40;;;1.50;;
10313;SDS011;5202;49.138;10.090;2023-02-26T03:21:36;5.57;;;1.73;;
10313;SDS011;5202;49.138;10.090;2023-02-26T03:24:23;3.20;;;1.53;;
10313;SDS011;5202;49.138;10.090;2023-02-26T03:27:09;2.87;;;1.50;;
10313;SDS011;5202;49.138;10.090;2023-02-26T03:29:48;2.50;;;1.60;;
10313;SDS011;5202;49.138;10.090;2023-02-26T03:32:22;2.97;;;1.47;;
10313;SDS011;5202;49.138;10.090;2023-02-26T03:34:59;5.60;;;1.50;;
10313;SDS011;5202;49.138;10.090;2023-02-26T03:37:33;2.93;;;1.50;;
10313;SDS011;5202;49.138;10.090;2023-02-26T03:40:05;6.23;;;1.60;;
10313;SDS011;5202;49.138;10.090;2023-02-26T03:42:39;2.63;;;1.50;;
10313;SDS011;5202;49.138;10.090;2023-02-26T03:45:12;5.07;;;1.63;;
10313;SDS011;5202;49.138;10.090;2023-02-26T03:47:46;3.87;;;1.63;;
10313;SDS011;5202;49.138;10.090;2023-02-26T03:50:23;5.80;;;2.00;;
10313;SDS011;5202;49.138;10.090;2023-02-26T03:53:19;1.90;;;1.30;;
10313;SDS011;5202;49.138;10.090;2023-02-26T03:55:58;4.57;;;1.83;;
10313;SDS011;5202;49.138;10.090;2023-02-26T03:58:50;5.33;;;1.70;;
10313;SDS011;5202;49.138;10.090;2023-02-26T04:01:50;4.37;;;1.30;;
10313;SDS011;5202;49.138;10.090;2023-02-26T04:04:27;2.57;;;1.53;;
10313;SDS011;5202;49.138;10.090;2023-02-26T04:07:02;1.83;;;1.67;;
10313;SDS011;5202;49.138;10.090;2023-02-26T04:09:31;4.03;;;1.87;;
10313;SDS011;5202;49.138;10.090;2023-02-26T04:12:00;3.73;;;1.50;;
10313;SDS011;5202;49.138;10.090;2023-02-26T04:14:28;3.80;;;1.53;;
10313;SDS011;5202;49.138;10.090;2023-02-26T04:16:56;2.83;;;1.40;;
10313;SDS011;5202;49.138;10.090;2023-02-26T04:19:25;5.07;;;1.50;;
10313;SDS011;5202;49.138;10.090;2023-02-26T04:21:54;4.67;;;1.80;;
10313;SDS011;5202;49.138;10.090;2023-02-26T04:24:24;2.90;;;1.53;;
10313;SDS011;5202;49.138;10.090;2023-02-26T04:26:55;4.80;;;1.60;;
10313;SDS011;5202;49.138;10.090;2023-02-26T04:29:24;2.30;;;1.50;;
10313;SDS011;5202;49.138;10.090;2023-02-26T04:31:52;7.17;;;1.70;;
10313;SDS011;5202;49.138;10.090;2023-02-26T04:34:21;2.70;;;1.60;;
10313;SDS011;5202;49.138;10.090;2023-02-26T04:36:51;3.37;;;1.73;;
10313;SDS011;5202;49.138;10.090;2023-02-26T04:39:19;3.10;;;1.50;;
10313;SDS011;5202;49.138;10.090;2023-02-26T04:41:50;4.93;;;2.00;;
10313;SDS011;5202;49.138;10.090;2023-02-26T04:44:18;4.10;;;1.73;;
10313;SDS011;5202;49.138;10.090;2023-02-26T04:46:46;3.27;;;1.57;;
10313;SDS011;5202;49.138;10.090;2023-02-26T04:49:14;4.00;;;2.00;;
10313;SDS011;5202;49.138;10.090;2023-02-26T04:51:43;3.70;;;1.93;;
10313;SDS011;5202;49.138;10.090;2023-02-26T04:54:14;5.23;;;1.80;;
10313;SDS011;5202;49.138;10.090;2023-02-26T04:56:42;5.57;;;1.73;;
10313;SDS011;5202;49.138;10.090;2023-02-26T04:59:12;5.27;;;1.70;;
10313;SDS011;5202;49.138;10.090;2023-02-26T05:01:40;3.23;;;1.53;;
10313;SDS011;5202;49.138;10.090;2023-02-26T05:04:09;3.00;;;1.77;;
10313;SDS011;5202;49.138;10.090;2023-02-26T05:06:39;5.00;;;2.10;;
10313;SDS011;5202;49.138;10.090;2023-02-26T05:09:08;6.97;;;3.27;;
10313;SDS011;5202;49.138;10.090;2023-02-26T05:11:36;8.57;;;4.70;;
10313;SDS011;5202;49.138;10.090;2023-02-26T05:14:06;6.43;;;2.93;;
10313;SDS011;5202;49.138;10.090;2023-02-26T05:16:36;3.30;;;1.93;;
10313;SDS011;5202;49.138;10.090;2023-02-26T05:19:05;4.37;;;2.50;;
10313;SDS011;5202;49.138;10.090;2023-02-26T05:21:34;5.57;;;2.53;;
10313;SDS011;5202;49.138;10.090;2023-02-26T05:24:02;2.13;;;1.73;;
10313;SDS011;5202;49.138;10.090;2023-02-26T05:26:31;5.03;;;1.97;;
10313;SDS011;5202;49.138;10.090;2023-02-26T05:29:00;6.17;;;1.70;;
10313;SDS011;5202;49.138;10.090;2023-02-26T05:31:29;2.97;;;1.70;;
10313;SDS011;5202;49.138;10.090;2023-02-26T05:33:58;7.30;;;2.07;;
10313;SDS011;5202;49.138;10.090;2023-02-26T05:36:27;4.90;;;1.77;;
10313;SDS011;5202;49.138;10.090;2023-02-26T05:38:55;3.00;;;1.43;;
10313;SDS011;5202;49.138;10.090;2023-02-26T05:41:23;4.33;;;1.60;;
10313;SDS011;5202;49.138;10.090;2023-02-26T05:43:51;3.17;;;1.90;;
10313;SDS011;5202;49.138;10.090;2023-02-26T05:46:20;5.50;;;1.87;;
10313;SDS011;5202;49.138;10.090;2023-02-26T05:48:48;5.37;;;1.90;;
10313;SDS011;5202;49.138;10.090;2023-02-26T05:51:18;2.33;;;1.50;;
10313;SDS011;5202;49.138;10.090;2023-02-26T05:53:47;5.73;;;2.50;;
10313;SDS011;5202;49.138;10.090;2023-02-26T05:56:15;2.63;;;1.90;;
10313;SDS011;5202;49.138;10.090;2023-02-26T05:58:47;3.23;;;1.73;;
10313;SDS011;5202;49.138;10.090;2023-02-26T06:01:15;2.23;;;1.67;;
10313;SDS011;5202;49.138;10.090;2023-02-26T06:03:44;5.97;;;1.80;;
10313;SDS011;5202;49.138;10.090;2023-02-26T06:06:12;4.20;;;1.97;;
10313;SDS011;5202;49.138;10.090;2023-02-26T06:08:45;2.70;;;1.77;;
10313;SDS011;5202;49.138;10.090;2023-02-26T06:11:13;4.47;;;2.30;;
10313;SDS011;5202;49.138;10.090;2023-02-26T06:13:42;2.73;;;1.90;;
10313;SDS011;5202;49.138;10.090;2023-02-26T06:16:10;1.93;;;1.60;;
10313;SDS011;5202;49.138;10.090;2023-02-26T06:18:38;2.33;;;1.77;;
10313;SDS011;5202;49.138;10.090;2023-02-26T06:21:07;1.70;;;1.60;;
10313;SDS011;5202;49.138;10.090;2023-02-26T06:23:35;4.27;;;1.90;;
10313;SDS011;5202;49.138;10.090;2023-02-26T06:26:05;4.77;;;2.50;;
10313;SDS011;5202;49.138;10.090;2023-02-26T06:28:33;8.43;;;3.07;;
10313;SDS011;5202;49.138;10.090;2023-02-26T06:31:02;2.87;;;2.30;;
10313;SDS011;5202;49.138;10.090;2023-02-26T06:33:30;5.60;;;2.57;;
10313;SDS011;5202;49.138;10.090;2023-02-26T06:35:59;7.57;;;3.00;;
10313;SDS011;5202;49.138;10.090;2023-02-26T06:38:27;6.40;;;4.37;;
10313;SDS011;5202;49.138;10.090;2023-02-26T06:40:56;5.13;;;3.57;;
10313;SDS011;5202;49.138;10.090;2023-02-26T06:43:26;5.27;;;4.67;;
10313;SDS011;5202;49.138;10.090;2023-02-26T06:45:56;4.73;;;3.20;;
10313;SDS011;5202;49.138;10.090;2023-02-26T06:48:25;4.40;;;3.03;;
10313;SDS011;5202;49.138;10.090;2023-02-26T06:50:53;3.90;;;2.47;;
10313;SDS011;5202;49.138;10.090;2023-02-26T06:53:22;5.03;;;2.07;;
10313;SDS011;5202;49.138;10.090;2023-02-26T06:55:51;6.50;;;2.90;;
10313;SDS011;5202;49.138;10.090;2023-02-26T06:58:19;2.30;;;2.10;;
10313;SDS011;5202;49.138;10.090;2023-02-26T07:00:49;6.23;;;3.80;;
10313;SDS011;5202;49.138;10.090;2023-02-26T07:03:18;5.20;;;3.07;;
10313;SDS011;5202;49.138;10.090;2023-02-26T07:05:47;5.77;;;2.97;;
10313;SDS011;5202;49.138;10.090;2023-02-26T07:08:15;5.03;;;2.00;;
10313;SDS011;5202;49.138;10.090;2023-02-26T07:10:43;2.83;;;2.30;;
10313;SDS011;5202;49.138;10.090;2023-02-26T07:13:14;3.17;;;2.20;;
10313;SDS011;5202;49.138;10.090;2023-02-26T07:15:43;5.50;;;2.47;;
10313;SDS011;5202;49.138;10.090;2023-02-26T07:18:13;6.87;;;1.90;;
10313;SDS011;5202;49.138;10.090;2023-02-26T07:20:42;5.63;;;2.00;;
10313;SDS011;5202;49.138;10.090;2023-02-26T07:23:10;3.87;;;2.03;;
10313;SDS011;5202;49.138;10.090;2023-02-26T07:25:39;3.57;;;1.50;;
10313;SDS011;5202;49.138;10.090;2023-02-26T07:28:07;2.07;;;1.50;;
10313;SDS011;5202;49.138;10.090;2023-02-26T07:30:35;2.50;;;1.60;;
10313;SDS011;5202;49.138;10.090;2023-02-26T07:33:03;2.50;;;1.77;;
10313;SDS011;5202;49.138;10.090;2023-02-26T07:35:33;3.57;;;1.50;;
10313;SDS011;5202;49.138;10.090;2023-02-26T07:38:02;1.93;;;1.73;;
10313;SDS011;5202;49.138;10.090;2023-02-26T07:40:30;2.73;;;1.70;;
10313;SDS011;5202;49.138;10.090;2023-02-26T07:43:00;3.13;;;1.93;;
10313;SDS011;5202;49.138;10.090;2023-02-26T07:45:29;6.13;;;1.80;;
10313;SDS011;5202;49.138;10.090;2023-02-26T07:47:57;5.43;;;2.20;;
10313;SDS011;5202;49.138;10.090;2023-02-26T07:50:26;3.10;;;1.40;;
10313;SDS011;5202;49.138;10.090;2023-02-26T07:52:55;4.30;;;1.70;;
10313;SDS011;5202;49.138;10.090;2023-02-26T07:55:23;4.70;;;1.93;;
10313;SDS011;5202;49.138;10.090;2023-02-26T07:57:53;6.87;;;1.80;;
10313;SDS011;5202;49.138;10.090;2023-02-26T08:00:21;2.93;;;1.60;;
10313;SDS011;5202;49.138;10.090;2023-02-26T08:02:49;7.50;;;3.50;;
10313;SDS011;5202;49.138;10.090;2023-02-26T08:05:18;3.40;;;2.07;;
10313;SDS011;5202;49.138;10.090;2023-02-26T08:07:46;8.03;;;3.83;;
10313;SDS011;5202;49.138;10.090;2023-02-26T08:10:15;10.57;;;5.13;;
10313;SDS011;5202;49.138;10.090;2023-02-26T08:12:44;11.23;;;4.13;;
10313;SDS011;5202;49.138;10.090;2023-02-26T08:15:12;6.10;;;2.87;;
10313;SDS011;5202;49.138;10.090;2023-02-26T08:17:41;3.50;;;2.30;;
10313;SDS011;5202;49.138;10.090;2023-02-26T08:20:10;5.07;;;2.67;;
10313;SDS011;5202;49.138;10.090;2023-02-26T08:22:40;3.57;;;1.63;;
10313;SDS011;5202;49.138;10.090;2023-02-26T08:25:09;3.30;;;1.80;;
10313;SDS011;5202;49.138;10.090;2023-02-26T08:27:39;3.63;;;1.83;;
10313;SDS011;5202;49.138;10.090;2023-02-26T08:30:08;4.07;;;2.10;;
10313;SDS011;5202;49.138;10.090;2023-02-26T08:32:38;1.70;;;1.60;;
10313;SDS011;5202;49.138;10.090;2023-02-26T08:35:07;2.47;;;1.43;;
10313;SDS011;5202;49.138;10.090;2023-02-26T08:37:36;2.23;;;1.50;;
10313;SDS011;5202;49.138;10.090;2023-02-26T08:40:05;5.23;;;1.80;;
10313;SDS011;5202;49.138;10.090;2023-02-26T08:42:39;2.77;;;2.07;;
10313;SDS011;5202;49.138;10.090;2023-02-26T08:45:08;3.37;;;1.80;;
10313;SDS011;5202;49.138;10.090;2023-02-26T08:47:37;3.33;;;1.70;;
10313;SDS011;5202;49.138;10.090;2023-02-26T08:50:21;2.37;;;1.60;;
10313;SDS011;5202;49.138;10.090;2023-02-26T08:52:49;3.07;;;1.63;;
10313;SDS011;5202;49.138;10.090;2023-02-26T08:55:18;2.30;;;1.70;;
10313;SDS011;5202;49.138;10.090;2023-02-26T08:57:47;2.43;;;1.70;;
10313;SDS011;5202;49.138;10.090;2023-02-26T09:00:16;2.27;;;1.43;;
10313;SDS011;5202;49.138;10.090;2023-02-26T09:02:45;4.53;;;1.40;;
10313;SDS011;5202;49.138;10.090;2023-02-26T09:05:14;3.30;;;1.50;;
10313;SDS011;5202;49.138;10.090;2023-02-26T09:07:43;2.17;;;1.40;;
10313;SDS011;5202;49.138;10.090;2023-02-26T09:10:12;1.70;;;1.60;;
10313;SDS011;5202;49.138;10.090;2023-02-26T09:12:41;2.83;;;1.50;;
10313;SDS011;5202;49.138;10.090;2023-02-26T09:15:11;2.33;;;1.83;;
10313;SDS011;5202;49.138;10.090;2023-02-26T09:17:41;2.90;;;1.50;;
10313;SDS011;5202;49.138;10.090;2023-02-26T09:20:10;1.80;;;1.43;;
10313;SDS011;5202;49.138;10.090;2023-02-26T09:22:40;2.13;;;1.40;;
10313;SDS011;5202;49.138;10.090;2023-02-26T09:25:09;2.30;;;1.30;;
10313;SDS011;5202;49.138;10.090;2023-02-26T09:27:38;4.23;;;1.87;;
10313;SDS011;5202;49.138;10.090;2023-02-26T09:30:06;2.73;;;1.30;;
10313;SDS011;5202;49.138;10.090;2023-02-26T09:32:37;1.43;;;1.30;;
10313;SDS011;5202;49.138;10.090;2023-02-26T09:35:06;2.87;;;1.40;;
10313;SDS011;5202;49.138;10.090;2023-02-26T09:37:35;1.83;;;1.50;;
10313;SDS011;5202;49.138;10.090;2023-02-26T09:40:04;2.40;;;1.73;;
10313;SDS011;5202;49.138;10.090;2023-02-26T09:42:41;1.53;;;1.27;;
10313;SDS011;5202;49.138;10.090;2023-02-26T09:45:28;1.37;;;1.27;;
10313;SDS011;5202;49.138;10.090;2023-02-26T09:48:02;1.30;;;1.20;;
10313;SDS011;5202;49.138;10.090;2023-02-26T09:50:37;1.50;;;1.33;;
10313;SDS011;5202;49.138;10.090;2023-02-26T09:53:10;1.70;;;1.47;;
10313;SDS011;5202;49.138;10.090;2023-02-26T09:55:44;3.10;;;2.60;;
10313;SDS011;5202;49.138;10.090;2023-02-26T09:58:16;5.17;;;3.50;;
10313;SDS011;5202;49.138;10.090;2023-02-26T10:00:52;2.90;;;1.90;;
10313;SDS011;5202;49.138;10.090;2023-02-26T10:03:31;2.20;;;1.77;;
10313;SDS011;5202;49.138;10.090;2023-02-26T10:06:15;1.90;;;1.80;;
10313;SDS011;5202;49.138;10.090;2023-02-26T10:08:55;2.20;;;2.00;;
10313;SDS011;5202;49.138;10.090;2023-02-26T10:11:39;1.50;;;1.40;;
10313;SDS011;5202;49.138;10.090;2023-02-26T10:14:15;1.70;;;1.60;;
10313;SDS011;5202;49.138;10.090;2023-02-26T10:16:50;2.17;;;1.70;;
10313;SDS011;5202;49.138;10.090;2023-02-26T10:19:24;2.50;;;1.43;;
10313;SDS011;5202;49.138;10.090;2023-02-26T10:21:58;3.37;;;2.00;;
10313;SDS011;5202;49.138;10.090;2023-02-26T10:24:36;2.50;;;1.53;;
10313;SDS011;5202;49.138;10.090;2023-02-26T10:27:10;1.70;;;1.60;;
10313;SDS011;5202;49.138;10.090;2023-02-26T10:29:44;1.30;;;1.20;;
10313;SDS011;5202;49.138;10.090;2023-02-26T10:32:21;3.23;;;2.13;;
10313;SDS011;5202;49.138;10.090;2023-02-26T10:34:55;1.50;;;1.40;;
10313;SDS011;5202;49.138;10.090;2023-02-26T10:37:38;2.20;;;1.37;;
10313;SDS011;5202;49.138;10.090;2023-02-26T10:40:16;2.43;;;1.47;;
10313;SDS011;5202;49.138;10.090;2023-02-26T10:42:52;1.30;;;1.20;;
10313;SDS011;5202;49.138;10.090;2023-02-26T10:45:29;1.37;;;1.27;;
10313;SDS011;5202;49.138;10.090;2023-02-26T10:48:12;1.40;;;1.30;;
10313;SDS011;5202;49.138;10.090;2023-02-26T10:50:56;1.93;;;1.30;;
10313;SDS011;5202;49.138;10.090;2023-02-26T10:53:27;1.73;;;1.37;;
10313;SDS011;5202;49.138;10.090;2023-02-26T10:55:58;2.23;;;2.03;;
10313;SDS011;5202;49.138;10.090;2023-02-26T10:58:32;1.87;;;1.60;;
10313;SDS011;5202;49.138;10.090;2023-02-26T11:01:01;2.80;;;1.20;;
10313;SDS011;5202;49.138;10.090;2023-02-26T11:03:31;1.40;;;1.30;;
10313;SDS011;5202;49.138;10.090;2023-02-26T11:06:06;3.13;;;1.50;;
10313;SDS011;5202;49.138;10.090;2023-02-26T11:08:38;1.40;;;1.30;;
10313;SDS011;5202;49.138;10.090;2023-02-26T11:11:10;2.07;;;1.30;;
10313;SDS011;5202;49.138;10.090;2023-02-26T11:14:03;1.90;;;1.27;;
10313;SDS011;5202;49.138;10.090;2023-02-26T11:16:32;1.40;;;1.30;;
10313;SDS011;5202;49.138;10.090;2023-02-26T11:19:01;1.20;;;1.10;;
10313;SDS011;5202;49.138;10.090;2023-02-26T11:21:35;1.00;;;1.00;;
10313;SDS011;5202;49.138;10.090;2023-02-26T11:24:08;2.37;;;1.20;;
10313;SDS011;5202;49.138;10.090;2023-02-26T11:26:42;1.40;;;1.30;;
10313;SDS011;5202;49.138;10.090;2023-02-26T11:29:15;1.20;;;1.10;;
10313;SDS011;5202;49.138;10.090;2023-02-26T11:31:47;1.20;;;1.10;;
10313;SDS011;5202;49.138;10.090;2023-02-26T11:34:20;2.77;;;1.23;;
10313;SDS011;5202;49.138;10.090;2023-02-26T11:36:52;1.00;;;1.00;;
10313;SDS011;5202;49.138;10.090;2023-02-26T11:39:25;1.80;;;1.30;;
10313;SDS011;5202;49.138;10.090;2023-02-26T11:41:56;2.83;;;1.50;;
10313;SDS011;5202;49.138;10.090;2023-02-26T11:44:30;1.30;;;1.00;;
10313;SDS011;5202;49.138;10.090;2023-02-26T11:47:04;1.60;;;1.50;;
10313;SDS011;5202;49.138;10.090;2023-02-26T11:49:36;1.50;;;1.40;;
10313;SDS011;5202;49.138;10.090;2023-02-26T11:52:20;1.60;;;1.37;;
10313;SDS011;5202;49.138;10.090;2023-02-26T11:54:56;1.30;;;1.20;;
10313;SDS011;5202;49.138;10.090;2023-02-26T11:57:30;1.03;;;1.00;;
10313;SDS011;5202;49.138;10.090;2023-02-26T12:00:00;1.20;;;1.10;;
10313;SDS011;5202;49.138;10.090;2023-02-26T12:02:45;0.90;;;0.90;;
10313;SDS011;5202;49.138;10.090;2023-02-26T12:05:14;1.40;;;1.00;;
10313;SDS011;5202;49.138;10.090;2023-02-26T12:07:45;1.70;;;1.20;;
10313;SDS011;5202;49.138;10.090;2023-02-26T12:10:15;0.80;;;0.80;;
10313;SDS011;5202;49.138;10.090;2023-02-26T12:13:02;0.77;;;0.77;;
10313;SDS011;5202;49.138;10.090;2023-02-26T12:15:37;0.93;;;0.83;;
10313;SDS011;5202;49.138;10.090;2023-02-26T12:18:25;0.83;;;0.80;;
10313;SDS011;5202;49.138;10.090;2023-02-26T12:21:13;1.73;;;1.00;;
10313;SDS011;5202;49.138;10.090;2023-02-26T12:24:09;1.33;;;1.23;;
10313;SDS011;5202;49.138;10.090;2023-02-26T12:26:52;1.80;;;1.20;;
10313;SDS011;5202;49.138;10.090;2023-02-26T12:29:36;1.67;;;1.00;;
10313;SDS011;5202;49.138;10.090;2023-02-26T12:32:39;1.00;;;1.00;;
10313;SDS011;5202;49.138;10.090;2023-02-26T12:35:27;1.30;;;1.20;;
10313;SDS011;5202;49.138;10.090;2023-02-26T12:38:12;1.97;;;1.23;;
10313;SDS011;5202;49.138;10.090;2023-02-26T12:43:51;1.17;;;1.10;;
10313;SDS011;5202;49.138;10.090;2023-02-26T12:46:26;1.77;;;1.17;;
10313;SDS011;5202;49.138;10.090;2023-02-26T12:49:20;1.03;;;1.03;;
10313;SDS011;5202;49.138;10.090;2023-02-26T12:52:26;1.30;;;1.20;;
10313;SDS011;5202;49.138;10.090;2023-02-26T12:55:20;0.97;;;0.97;;
10313;SDS011;5202;49.138;10.090;2023-02-26T13:01:23;1.13;;;1.03;;
10313;SDS011;5202;49.138;10.090;2023-02-26T13:07:38;0.90;;;0.90;;
10313;SDS011;5202;49.138;10.090;2023-02-26T13:10:19;0.90;;;0.90;;
10313;SDS011;5202;49.138;10.090;2023-02-26T13:12:59;1.47;;;1.20;;
10313;SDS011;5202;49.138;10.090;2023-02-26T13:15:52;1.33;;;1.13;;
10313;SDS011;5202;49.138;10.090;2023-02-26T13:18:42;1.17;;;1.07;;
10313;SDS011;5202;49.138;10.090;2023-02-26T13:21:18;2.40;;;1.13;;
10313;SDS011;5202;49.138;10.090;2023-02-26T13:23:51;0.97;;;0.97;;
10313;SDS011;5202;49.138;10.090;2023-02-26T13:26:24;1.23;;;1.10;;
10313;SDS011;5202;49.138;10.090;2023-02-26T13:28:56;1.43;;;1.20;;
10313;SDS011;5202;49.138;10.090;2023-02-26T13:31:31;1.87;;;1.10;;
10313;SDS011;5202;49.138;10.090;2023-02-26T13:34:09;0.97;;;0.97;;
10313;SDS011;5202;49.138;10.090;2023-02-26T13:36:41;1.80;;;1.00;;
10313;SDS011;5202;49.138;10.090;2023-02-26T13:39:22;1.20;;;1.10;;
10313;SDS011;5202;49.138;10.090;2023-02-26T13:42:17;2.87;;;0.90;;
10313;SDS011;5202;49.138;10.090;2023-02-26T13:44:58;1.80;;;1.00;;
10313;SDS011;5202;49.138;10.090;2023-02-26T13:48:07;1.90;;;1.00;;
10313;SDS011;5202;49.138;10.090;2023-02-26T13:50:46;1.33;;;1.23;;
10313;SDS011;5202;49.138;10.090;2023-02-26T13:53:35;2.17;;;1.40;;
10313;SDS011;5202;49.138;10.090;2023-02-26T13:56:41;1.47;;;1.37;;
10313;SDS011;5202;49.138;10.090;2023-02-26T13:59:36;1.27;;;1.17;;
10313;SDS011;5202;49.138;10.090;2023-02-26T14:02:35;2.17;;;1.10;;
10313;SDS011;5202;49.138;10.090;2023-02-26T14:05:31;1.33;;;1.10;;
10313;SDS011;5202;49.138;10.090;2023-02-26T14:08:44;1.23;;;1.10;;
10313;SDS011;5202;49.138;10.090;2023-02-26T14:11:24;0.90;;;0.90;;
10313;SDS011;5202;49.138;10.090;2023-02-26T14:14:24;2.10;;;1.30;;
10313;SDS011;5202;49.138;10.090;2023-02-26T14:17:25;1.40;;;1.30;;
10313;SDS011;5202;49.138;10.090;2023-02-26T14:20:20;2.97;;;1.47;;
10313;SDS011;5202;49.138;10.090;2023-02-26T14:22:56;1.47;;;1.30;;
10313;SDS011;5202;49.138;10.090;2023-02-26T14:25:40;1.60;;;1.50;;
10313;SDS011;5202;49.138;10.090;2023-02-26T14:31:13;2.27;;;1.00;;
10313;SDS011;5202;49.138;10.090;2023-02-26T14:33:56;1.20;;;1.10;;
10313;SDS011;5202;49.138;10.090;2023-02-26T14:36:41;0.97;;;0.97;;
10313;SDS011;5202;49.138;10.090;2023-02-26T14:39:26;1.57;;;1.10;;
10313;SDS011;5202;49.138;10.090;2023-02-26T14:41:58;1.00;;;1.00;;
10313;SDS011;5202;49.138;10.090;2023-02-26T14:44:31;1.60;;;1.00;;
10313;SDS011;5202;49.138;10.090;2023-02-26T14:47:04;1.03;;;0.93;;
10313;SDS011;5202;49.138;10.090;2023-02-26T14:49:34;0.80;;;0.80;;
10313;SDS011;5202;49.138;10.090;2023-02-26T14:52:09;2.23;;;0.97;;
10313;SDS011;5202;49.138;10.090;2023-02-26T14:55:16;1.10;;;1.10;;
10313;SDS011;5202;49.138;10.090;2023-02-26T14:58:18;1.00;;;0.90;;
10313;SDS011;5202;49.138;10.090;2023-02-26T15:01:07;1.10;;;1.00;;
10313;SDS011;5202;49.138;10.090;2023-02-26T15:03:59;1.37;;;1.10;;
10313;SDS011;5202;49.138;10.090;2023-02-26T15:07:18;1.33;;;1.00;;
10313;SDS011;5202;49.138;10.090;2023-02-26T15:10:09;0.80;;;0.80;;
10313;SDS011;5202;49.138;10.090;2023-02-26T15:12:54;1.50;;;1.37;;
10313;SDS011;5202;49.138;10.090;2023-02-26T15:15:44;1.63;;;1.53;;
10313;SDS011;5202;49.138;10.090;2023-02-26T15:18:24;1.50;;;1.10;;
10313;SDS011;5202;49.138;10.090;2023-02-26T15:21:09;1.20;;;1.10;;
10313;SDS011;5202;49.138;10.090;2023-02-26T15:23:46;1.37;;;1.10;;
10313;SDS011;5202;49.138;10.090;2023-02-26T15:26:19;1.00;;;1.00;;
10313;SDS011;5202;49.138;10.090;2023-02-26T15:28:52;1.30;;;1.20;;
10313;SDS011;5202;49.138;10.090;2023-02-26T15:31:26;1.33;;;1.03;;
10313;SDS011;5202;49.138;10.090;2023-02-26T15:33:59;1.40;;;1.30;;
10313;SDS011;5202;49.138;10.090;2023-02-26T15:36:28;1.73;;;1.10;;
10313;SDS011;5202;49.138;10.090;2023-02-26T15:38:59;1.20;;;1.10;;
10313;SDS011;5202;49.138;10.090;2023-02-26T15:41:30;1.93;;;1.30;;
10313;SDS011;5202;49.138;10.090;2023-02-26T15:44:00;2.57;;;1.63;;
10313;SDS011;5202;49.138;10.090;2023-02-26T15:46:33;0.93;;;0.90;;
10313;SDS011;5202;49.138;10.090;2023-02-26T15:49:07;1.70;;;0.80;;
10313;SDS011;5202;49.138;10.090;2023-02-26T15:51:38;1.77;;;0.90;;